FMNN

Fascene Airport

Nosy Be, Madagascar
METAR FMNN 160400Z 00000KT 9999 SCT020 BKN233 26/26 Q1014
Observed Flight Rules
Dec-16 @ 04:00 UTC (3 hours ago) Visual Flight Rules
Visibility Clouds
10,000+ meters
  • Scattered at 2,000' AGL
  • Broken at 23,300' AGL
Temperatures Readings
Current 26°C / 79°F
Dewpoint 26°C / 79°F
Humidity 100%
Altimeter 29.94" Hg
Pressure 1014 hPa
Elevation 9
METAR FMNN 160400Z 00000KT 9999 SCT020 BKN233 26/26 Q1014
Observed Flight Rules
Dec-16 @ 04:00 UTC
(3 hours ago)
VFR
Clouds
  • Scattered at 2,000' AGL
  • Broken at 23,300' AGL
Temperature Dewpoint
26°C / 79°F 26°C / 79°F
Humidity Altimeter Pressure
100% 29.94" Hg 1014 hPa